createdAt,value
2023-01-09T00:01:16.559Z,98502.88
2023-01-09T00:03:44.598Z,98484.28
2023-01-09T00:06:11.898Z,98483.06
2023-01-09T00:08:39.353Z,98477.13
2023-01-09T00:11:08.398Z,98471.66
2023-01-09T00:13:36.212Z,98463.75
2023-01-09T00:16:05.300Z,98453.09
2023-01-09T00:18:32.767Z,98458.81
2023-01-09T00:21:02.225Z,98449.63
2023-01-09T00:23:30.880Z,98456.59
2023-01-09T00:26:19.032Z,98450.13
2023-01-09T00:28:48.389Z,98439.97
2023-01-09T00:31:16.720Z,98438.97
2023-01-09T00:34:06.621Z,98439.00
2023-01-09T00:36:33.716Z,98441.75
2023-01-09T00:39:01.213Z,98439.00
2023-01-09T00:41:42.135Z,98441.72
2023-01-09T00:44:27.134Z,98447.94
2023-01-09T00:46:59.373Z,98449.19
2023-01-09T00:49:30.857Z,98436.25
2023-01-09T00:51:58.016Z,98431.53
2023-01-09T00:54:26.299Z,98422.13
2023-01-09T00:56:53.320Z,98414.91
2023-01-09T00:59:21.214Z,98417.38
2023-01-09T01:01:48.473Z,98412.19
2023-01-09T01:04:34.712Z,98407.47
2023-01-09T01:07:21.789Z,98395.78
2023-01-09T01:09:49.208Z,98389.09
2023-01-09T01:12:16.319Z,98391.81
2023-01-09T01:14:44.161Z,98385.09
2023-01-09T01:17:11.614Z,98393.28
2023-01-09T01:19:39.141Z,98399.25
2023-01-09T01:22:06.298Z,98394.03
2023-01-09T01:24:33.788Z,98383.84
2023-01-09T01:27:03.541Z,98379.13
2023-01-09T01:29:31.116Z,98387.31
2023-01-09T01:31:58.280Z,98369.22
2023-01-09T01:34:25.846Z,98371.94
2023-01-09T01:36:52.877Z,98371.44
2023-01-09T01:39:22.560Z,98377.16
2023-01-09T01:41:49.619Z,98363.75
2023-01-09T01:44:54.631Z,98361.53
2023-01-09T01:47:31.982Z,98356.53
2023-01-09T01:50:03.356Z,98350.81
2023-01-09T01:52:32.436Z,98352.31
2023-01-09T01:55:00.421Z,98338.66
2023-01-09T01:57:31.103Z,98334.44
2023-01-09T02:00:00.133Z,98327.75
2023-01-09T02:02:31.241Z,98330.22
2023-01-09T02:05:00.424Z,98321.03
2023-01-09T02:07:27.578Z,98315.81
2023-01-09T02:09:55.485Z,98311.59
2023-01-09T02:12:25.788Z,98295.94
2023-01-09T02:15:15.017Z,98289.00
2023-01-09T02:18:03.701Z,98295.44
2023-01-09T02:20:48.852Z,98281.53
2023-01-09T02:23:18.812Z,98271.09
2023-01-09T02:25:57.527Z,98273.06
2023-01-09T02:29:01.800Z,98258.19
2023-01-09T02:32:10.682Z,98257.19
2023-01-09T02:34:43.741Z,98244.97
2023-01-09T02:37:11.021Z,98236.53
2023-01-09T02:40:10.786Z,98235.06
2023-01-09T02:42:41.952Z,98225.84
2023-01-09T02:45:09.173Z,98220.13
2023-01-09T02:47:40.382Z,98207.94
2023-01-09T02:50:16.296Z,98213.19
2023-01-09T02:52:47.878Z,98217.41
2023-01-09T02:55:42.706Z,98225.56
2023-01-09T02:58:32.181Z,98216.88
2023-01-09T03:01:16.585Z,98221.34
2023-01-09T03:03:49.572Z,98217.09
2023-01-09T03:06:28.789Z,98218.31
2023-01-09T03:09:01.438Z,98202.41
2023-01-09T03:11:33.612Z,98213.34
2023-01-09T03:14:09.912Z,98205.38
2023-01-09T03:16:38.355Z,98208.34
2023-01-09T03:19:11.822Z,98193.69
2023-01-09T03:21:40.466Z,98207.09
2023-01-09T03:24:10.017Z,98204.34
2023-01-09T03:26:37.347Z,98181.75
2023-01-09T03:29:04.729Z,98183.19
2023-01-09T03:31:31.934Z,98183.44
2023-01-09T03:33:59.283Z,98188.91
2023-01-09T03:36:26.417Z,98181.97
2023-01-09T03:38:56.023Z,98191.38
2023-01-09T03:41:23.385Z,98168.03
2023-01-09T03:43:50.774Z,98169.03
2023-01-09T03:46:17.922Z,98208.03
2023-01-09T03:48:45.310Z,98217.25
2023-01-09T03:51:12.434Z,98188.66
2023-01-09T03:53:42.208Z,98205.78
2023-01-09T03:56:09.338Z,98187.16
2023-01-09T03:58:36.814Z,98168.78
2023-01-09T04:01:09.598Z,98156.56
2023-01-09T04:03:37.238Z,98171.00
2023-01-09T04:06:04.609Z,98161.28
2023-01-09T04:08:32.289Z,98163.06
2023-01-09T04:10:59.342Z,98146.41
2023-01-09T04:13:26.774Z,98143.44
2023-01-09T04:15:53.906Z,98135.50
2023-01-09T04:18:21.383Z,98123.28
2023-01-09T04:20:48.678Z,98123.75
2023-01-09T04:23:16.298Z,98128.75
2023-01-09T04:25:43.379Z,98141.47
2023-01-09T04:28:11.003Z,98134.72
2023-01-09T04:30:38.029Z,98124.50
2023-01-09T04:33:05.382Z,98109.34
2023-01-09T04:35:34.629Z,98110.56
2023-01-09T04:38:01.982Z,98111.53
2023-01-09T04:40:29.057Z,98106.31
2023-01-09T04:42:56.599Z,98115.53
2023-01-09T04:45:25.810Z,98114.50
2023-01-09T04:47:55.586Z,98099.63
2023-01-09T04:50:22.812Z,98112.28
2023-01-09T04:52:50.140Z,98110.25
2023-01-09T04:55:17.213Z,98118.72
2023-01-09T04:57:44.605Z,98098.59
2023-01-09T05:00:12.495Z,98095.63
2023-01-09T05:02:40.887Z,98092.13
2023-01-09T05:05:11.504Z,98101.56
2023-01-09T05:07:41.839Z,98093.88
2023-01-09T05:10:10.392Z,98084.66
2023-01-09T05:12:38.120Z,98086.63
2023-01-09T05:15:07.088Z,98088.81
2023-01-09T05:17:36.702Z,98088.13
2023-01-09T05:20:04.454Z,98083.63
2023-01-09T05:22:31.953Z,98088.81
2023-01-09T05:25:01.467Z,98085.63
2023-01-09T05:27:30.492Z,98087.59
2023-01-09T05:29:57.567Z,98075.38
2023-01-09T05:32:27.396Z,98082.31
2023-01-09T05:34:54.568Z,98082.84
2023-01-09T05:37:21.846Z,98081.56
2023-01-09T05:39:49.241Z,98075.34
2023-01-09T05:42:16.605Z,98077.00
2023-01-09T05:44:43.753Z,98071.06
2023-01-09T05:47:11.239Z,98069.28
2023-01-09T05:49:38.256Z,98069.03
2023-01-09T05:52:05.838Z,98073.72
2023-01-09T05:54:32.876Z,98067.78
2023-01-09T05:57:00.232Z,98067.50
2023-01-09T05:59:27.493Z,98068.75
2023-01-09T06:01:54.893Z,98065.00
2023-01-09T06:04:22.060Z,98060.72
2023-01-09T06:06:49.743Z,98065.19
2023-01-09T06:09:16.750Z,98068.81
2023-01-09T06:11:44.254Z,98073.25
2023-01-09T06:14:11.248Z,98068.66
2023-01-09T06:16:38.719Z,98073.63
2023-01-09T06:19:06.068Z,98079.53
2023-01-09T06:21:34.055Z,98075.03
2023-01-09T06:24:01.208Z,98081.28
2023-01-09T06:26:28.658Z,98080.22
2023-01-09T06:28:58.008Z,98081.94
2023-01-09T06:31:28.216Z,98083.09
2023-01-09T06:33:55.389Z,98086.50
2023-01-09T06:36:23.105Z,98086.72
2023-01-09T06:38:52.383Z,98087.47
2023-01-09T06:41:21.882Z,98091.41
2023-01-09T06:43:49.113Z,98085.28
2023-01-09T06:46:16.464Z,98083.00
2023-01-09T06:48:43.587Z,98096.41
2023-01-09T06:51:13.344Z,98103.28
2023-01-09T06:53:40.724Z,98090.75
2023-01-09T06:56:08.258Z,98092.69
2023-01-09T06:58:35.625Z,98106.84
2023-01-09T07:01:03.273Z,98121.25
2023-01-09T07:03:33.003Z,98122.13
2023-01-09T07:06:03.838Z,98128.72
2023-01-09T07:08:31.085Z,98144.56
2023-01-09T07:10:58.776Z,98143.75
2023-01-09T07:13:26.100Z,98145.09
2023-01-09T07:15:53.855Z,98135.69
2023-01-09T07:18:23.189Z,98131.47
2023-01-09T07:20:51.120Z,98147.91
2023-01-09T07:23:18.956Z,98137.69
2023-01-09T07:25:46.666Z,98136.41
2023-01-09T07:28:13.726Z,98149.41
2023-01-09T07:30:41.176Z,98158.88
2023-01-09T07:33:08.283Z,98158.44
2023-01-09T07:35:36.080Z,98167.25
2023-01-09T07:38:03.729Z,98171.53
2023-01-09T07:40:31.135Z,98170.59
2023-01-09T07:42:58.406Z,98191.31
2023-01-09T07:45:25.828Z,98201.03
2023-01-09T07:47:52.972Z,98218.06
2023-01-09T07:50:20.962Z,98224.16
2023-01-09T07:52:50.561Z,98230.78
2023-01-09T07:55:17.966Z,98247.72
2023-01-09T07:57:51.527Z,98253.25
2023-01-09T08:00:21.138Z,98265.69
2023-01-09T08:02:54.175Z,98253.72
2023-01-09T08:05:22.774Z,98261.00
2023-01-09T08:07:51.483Z,98258.28
2023-01-09T08:10:20.049Z,98257.53
2023-01-09T08:12:48.899Z,98267.00
2023-01-09T08:15:16.539Z,98271.25
2023-01-09T08:17:47.681Z,98273.66
2023-01-09T08:20:17.300Z,98285.91
2023-01-09T08:22:53.697Z,98294.34
2023-01-09T08:25:21.257Z,98301.78
2023-01-09T08:27:48.730Z,98303.50
2023-01-09T08:30:16.796Z,98306.69
2023-01-09T08:32:48.350Z,98319.84
2023-01-09T08:35:15.589Z,98328.31
2023-01-09T08:37:49.465Z,98324.53
2023-01-09T08:40:17.983Z,98338.47
2023-01-09T08:43:03.954Z,98352.66
2023-01-09T08:45:52.970Z,98352.13
2023-01-09T08:48:20.578Z,98348.66
2023-01-09T08:50:47.674Z,98339.91
2023-01-09T08:53:15.763Z,98344.81
2023-01-09T08:55:43.408Z,98341.81
2023-01-09T08:58:11.064Z,98344.72
2023-01-09T09:00:40.649Z,98351.41
2023-01-09T09:03:11.151Z,98359.34
2023-01-09T09:05:40.869Z,98367.28
2023-01-09T09:08:08.385Z,98376.00
2023-01-09T09:10:38.697Z,98362.97
2023-01-09T09:13:06.120Z,98369.13
2023-01-09T09:15:34.531Z,98378.34
2023-01-09T09:18:04.648Z,98388.28
2023-01-09T09:20:34.315Z,98388.25
2023-01-09T09:23:01.864Z,98392.16
2023-01-09T09:25:29.028Z,98385.22
2023-01-09T09:27:56.595Z,98388.38
2023-01-09T09:30:24.741Z,98391.09
2023-01-09T09:32:52.324Z,98392.28
2023-01-09T09:35:21.054Z,98389.94
2023-01-09T09:38:00.035Z,98389.59
2023-01-09T09:40:55.738Z,98396.72
2023-01-09T09:44:08.107Z,98406.88
2023-01-09T09:47:03.777Z,98398.34
2023-01-09T09:49:49.868Z,98401.50
2023-01-09T09:52:39.544Z,98404.25
2023-01-09T09:55:18.465Z,98395.72
2023-01-09T09:57:48.104Z,98391.34
2023-01-09T10:00:24.902Z,98381.72
2023-01-09T10:03:11.519Z,98376.72
2023-01-09T10:05:44.944Z,98377.34
2023-01-09T10:08:38.971Z,98384.25
2023-01-09T10:11:16.315Z,98387.53
2023-01-09T10:14:04.237Z,98373.38
2023-01-09T10:16:59.318Z,98370.31
2023-01-09T10:20:00.915Z,98370.09
2023-01-09T10:22:37.425Z,98371.69
2023-01-09T10:25:22.876Z,98371.69
2023-01-09T10:27:59.388Z,98366.19
2023-01-09T10:30:29.935Z,98364.69
2023-01-09T10:33:09.442Z,98365.88
2023-01-09T10:36:05.723Z,98362.78
2023-01-09T10:38:38.945Z,98349.13
2023-01-09T10:41:14.910Z,98365.63
2023-01-09T10:44:10.684Z,98351.56
2023-01-09T10:47:01.754Z,98344.78
2023-01-09T10:49:29.460Z,98349.22
2023-01-09T10:52:12.676Z,98338.97
2023-01-09T10:54:50.578Z,98331.63
2023-01-09T10:57:40.797Z,98327.81
2023-01-09T11:00:18.564Z,98327.00
2023-01-09T11:02:46.521Z,98332.19
2023-01-09T11:05:21.331Z,98338.84
2023-01-09T11:07:59.972Z,98342.19
2023-01-09T11:10:51.329Z,98335.44
2023-01-09T11:13:26.617Z,98321.88
2023-01-09T11:16:06.634Z,98331.06
2023-01-09T11:18:39.789Z,98330.34
2023-01-09T11:21:14.333Z,98332.03
2023-01-09T11:23:41.610Z,98322.47
2023-01-09T11:26:22.356Z,98325.97
2023-01-09T11:29:12.129Z,98330.28
2023-01-09T11:31:50.977Z,98336.59
2023-01-09T11:34:21.424Z,98330.22
2023-01-09T11:36:53.779Z,98326.25
2023-01-09T11:39:33.202Z,98349.28
2023-01-09T11:42:03.279Z,98365.88
2023-01-09T11:44:34.735Z,98364.09
2023-01-09T11:47:23.663Z,98365.38
2023-01-09T11:49:52.928Z,98369.19
2023-01-09T11:52:22.336Z,98361.19
2023-01-09T11:54:54.256Z,98360.75
2023-01-09T11:57:24.331Z,98372.44
2023-01-09T11:59:51.942Z,98376.81
2023-01-09T12:02:46.609Z,98380.28
2023-01-09T12:05:22.998Z,98376.06
2023-01-09T12:08:35.621Z,98372.22
2023-01-09T12:11:07.355Z,98373.91
2023-01-09T12:13:37.943Z,98377.94
2023-01-09T12:16:26.891Z,98376.16
2023-01-09T12:19:23.198Z,98383.34
2023-01-09T12:22:21.325Z,98384.44
2023-01-09T12:25:19.623Z,98390.66
2023-01-09T12:28:12.208Z,98393.84
2023-01-09T12:30:50.592Z,98381.72
2023-01-09T12:33:51.777Z,98382.16
2023-01-09T12:36:45.221Z,98381.81
2023-01-09T12:39:55.515Z,98374.91
2023-01-09T12:42:59.207Z,98380.41
2023-01-09T12:45:44.675Z,98380.63
2023-01-09T12:48:36.799Z,98389.66
2023-01-09T12:51:31.421Z,98407.06
2023-01-09T12:54:21.869Z,98413.50
2023-01-09T12:56:54.764Z,98415.19
2023-01-09T13:00:00.802Z,98422.00
2023-01-09T13:02:45.757Z,98426.22
2023-01-09T13:05:34.792Z,98422.75
2023-01-09T13:08:32.533Z,98419.03
2023-01-09T13:11:19.293Z,98417.75
2023-01-09T13:13:58.392Z,98403.97
2023-01-09T13:16:32.393Z,98411.91
2023-01-09T13:19:26.490Z,98410.31
2023-01-09T13:21:56.780Z,98412.63
2023-01-09T13:24:39.214Z,98403.66
2023-01-09T13:27:10.867Z,98407.66
2023-01-09T13:29:43.037Z,98412.75
2023-01-09T13:32:35.958Z,98419.03
2023-01-09T13:35:06.332Z,98418.81
2023-01-09T13:37:37.056Z,98419.34
2023-01-09T13:40:29.440Z,98420.63
2023-01-09T13:42:59.086Z,98423.19
2023-01-09T13:45:35.179Z,98426.47
2023-01-09T13:48:09.031Z,98426.25
2023-01-09T13:50:36.079Z,98424.97
2023-01-09T13:53:18.990Z,98422.22
2023-01-09T13:55:59.108Z,98422.03
2023-01-09T13:58:28.757Z,98416.09
2023-01-09T14:00:59.256Z,98424.38
2023-01-09T14:03:34.011Z,98424.38
2023-01-09T14:06:03.254Z,98433.19
2023-01-09T14:08:33.431Z,98438.38
2023-01-09T14:11:04.331Z,98445.69
2023-01-09T14:13:41.256Z,98448.97
2023-01-09T14:16:33.095Z,98461.28
2023-01-09T14:19:15.893Z,98457.25
2023-01-09T14:21:57.983Z,98452.59
2023-01-09T14:24:28.775Z,98464.69
2023-01-09T14:26:58.905Z,98460.63
2023-01-09T14:29:29.420Z,98457.03
2023-01-09T14:32:26.374Z,98454.06
2023-01-09T14:35:02.265Z,98460.09
2023-01-09T14:37:30.651Z,98467.13
2023-01-09T14:39:58.779Z,98462.84
2023-01-09T14:42:29.522Z,98480.38
2023-01-09T14:45:02.762Z,98469.13
2023-01-09T14:47:47.547Z,98477.06
2023-01-09T14:50:37.775Z,98478.16
2023-01-09T14:53:11.099Z,98481.94
2023-01-09T14:55:58.304Z,98490.22
2023-01-09T14:58:33.675Z,98490.31
2023-01-09T15:01:01.122Z,98498.06
2023-01-09T15:03:42.775Z,98502.53
2023-01-09T15:06:23.261Z,98500.09
2023-01-09T15:09:00.956Z,98500.41
2023-01-09T15:11:29.153Z,98503.16
2023-01-09T15:14:00.221Z,98506.66
2023-01-09T15:16:31.404Z,98518.84
2023-01-09T15:19:01.985Z,98508.88
2023-01-09T15:21:31.472Z,98517.47
2023-01-09T15:24:22.831Z,98513.00
2023-01-09T15:26:55.875Z,98520.00
2023-01-09T15:29:23.527Z,98518.94
2023-01-09T15:32:03.562Z,98512.69
2023-01-09T15:34:33.814Z,98520.22
2023-01-09T15:37:01.579Z,98525.97
2023-01-09T15:39:34.640Z,98523.72
2023-01-09T15:42:21.889Z,98514.81
2023-01-09T15:44:52.277Z,98517.66
2023-01-09T15:47:24.190Z,98514.91
2023-01-09T15:49:52.933Z,98509.84
2023-01-09T15:52:22.025Z,98518.31
2023-01-09T15:54:49.375Z,98516.28
2023-01-09T15:57:52.892Z,98523.84
2023-01-09T16:00:33.389Z,98522.13
2023-01-09T16:03:11.137Z,98520.13
2023-01-09T16:06:06.751Z,98524.56
2023-01-09T16:08:38.307Z,98517.34
2023-01-09T16:11:10.490Z,98521.94
2023-01-09T16:13:46.219Z,98513.66
2023-01-09T16:16:22.773Z,98513.97
2023-01-09T16:18:54.491Z,98512.03
2023-01-09T16:21:22.052Z,98512.34
2023-01-09T16:23:58.174Z,98528.38
2023-01-09T16:26:28.291Z,98527.09
2023-01-09T16:29:15.916Z,98530.38
2023-01-09T16:31:43.235Z,98527.84
2023-01-09T16:34:15.915Z,98523.19
2023-01-09T16:36:45.760Z,98514.69
2023-01-09T16:39:15.554Z,98515.97
2023-01-09T16:42:02.256Z,98520.00
2023-01-09T16:44:31.962Z,98514.25
2023-01-09T16:46:59.127Z,98511.50
2023-01-09T16:49:28.489Z,98517.13
2023-01-09T16:51:57.140Z,98511.06
2023-01-09T16:54:24.573Z,98512.56
2023-01-09T16:56:54.839Z,98517.13
2023-01-09T16:59:27.426Z,98520.63
2023-01-09T17:01:55.208Z,98522.63
2023-01-09T17:04:24.183Z,98528.13
2023-01-09T17:06:51.789Z,98530.88
2023-01-09T17:09:24.600Z,98524.13
2023-01-09T17:11:53.085Z,98524.66
2023-01-09T17:14:20.499Z,98529.94
2023-01-09T17:16:47.690Z,98529.28
2023-01-09T17:19:21.485Z,98538.06
2023-01-09T17:21:48.907Z,98538.38
2023-01-09T17:24:35.331Z,98539.13
2023-01-09T17:27:21.780Z,98551.19
2023-01-09T17:29:49.381Z,98544.94
2023-01-09T17:32:19.304Z,98547.69
2023-01-09T17:34:49.217Z,98552.25
2023-01-09T17:37:18.163Z,98557.00
2023-01-09T17:39:48.015Z,98557.00
2023-01-09T17:42:15.242Z,98553.28
2023-01-09T17:44:42.824Z,98562.81
2023-01-09T17:47:16.151Z,98562.31
2023-01-09T17:49:44.024Z,98559.56
2023-01-09T17:52:11.194Z,98554.78
2023-01-09T17:54:41.226Z,98565.56
2023-01-09T17:57:16.308Z,98560.59
2023-01-09T17:59:45.227Z,98560.59
2023-01-09T18:02:18.818Z,98563.56
2023-01-09T18:04:46.554Z,98559.56
2023-01-09T18:07:15.543Z,98564.00
2023-01-09T18:09:43.986Z,98559.25
2023-01-09T18:12:11.609Z,98555.75
2023-01-09T18:14:40.776Z,98560.41
2023-01-09T18:17:12.054Z,98552.16
2023-01-09T18:19:39.612Z,98559.66
2023-01-09T18:22:07.015Z,98564.22
2023-01-09T18:24:35.208Z,98556.69
2023-01-09T18:27:03.818Z,98561.03
2023-01-09T18:29:31.607Z,98557.75
2023-01-09T18:32:01.401Z,98559.34
2023-01-09T18:34:31.340Z,98567.59
2023-01-09T18:37:01.313Z,98560.06
2023-01-09T18:39:29.618Z,98559.34
2023-01-09T18:41:59.124Z,98563.13
2023-01-09T18:44:26.643Z,98560.16
2023-01-09T18:46:54.986Z,98559.19
2023-01-09T18:49:22.586Z,98554.00
2023-01-09T18:51:51.975Z,98565.00
2023-01-09T18:54:20.431Z,98572.72
2023-01-09T18:56:48.435Z,98576.53
2023-01-09T18:59:16.377Z,98573.34
2023-01-09T19:01:47.520Z,98588.59
2023-01-09T19:04:17.404Z,98588.16
2023-01-09T19:06:45.156Z,98597.16
2023-01-09T19:09:14.286Z,98602.44
2023-01-09T19:11:44.518Z,98598.00
2023-01-09T19:14:13.357Z,98606.03
2023-01-09T19:16:42.644Z,98602.75
2023-01-09T19:19:10.779Z,98598.28
2023-01-09T19:21:38.535Z,98602.28
2023-01-09T19:24:07.563Z,98598.16
2023-01-09T19:26:35.259Z,98610.94
2023-01-09T19:29:02.821Z,98601.25
2023-01-09T19:31:30.713Z,98603.72
2023-01-09T19:33:58.932Z,98601.50
2023-01-09T19:36:30.638Z,98611.22
2023-01-09T19:39:01.327Z,98603.94
2023-01-09T19:41:30.583Z,98607.75
2023-01-09T19:44:02.244Z,98607.00
2023-01-09T19:46:33.636Z,98595.25
2023-01-09T19:49:05.547Z,98597.69
2023-01-09T19:51:34.388Z,98595.91
2023-01-09T19:56:31.225Z,98596.16
2023-01-09T19:59:01.520Z,98600.38
2023-01-09T20:01:34.847Z,98595.63
2023-01-09T20:04:07.674Z,98599.63
2023-01-09T20:06:35.940Z,98603.66
2023-01-09T20:09:05.055Z,98610.94
2023-01-09T20:11:33.630Z,98606.63
2023-01-09T20:14:01.919Z,98608.31
2023-01-09T20:16:30.967Z,98609.31
2023-01-09T20:19:04.234Z,98615.09
2023-01-09T20:21:32.399Z,98619.09
2023-01-09T20:24:05.506Z,98622.63
2023-01-09T20:26:40.405Z,98620.38
2023-01-09T20:29:13.704Z,98622.91
2023-01-09T20:31:41.543Z,98620.16
2023-01-09T20:34:12.622Z,98627.13
2023-01-09T20:36:40.205Z,98636.44
2023-01-09T20:39:11.345Z,98625.13
2023-01-09T20:41:39.016Z,98631.16
2023-01-09T20:44:10.863Z,98633.69
2023-01-09T20:46:48.119Z,98627.00
2023-01-09T20:49:18.488Z,98630.47
2023-01-09T20:51:51.878Z,98635.25
2023-01-09T20:54:24.242Z,98630.13
2023-01-09T20:56:53.802Z,98632.34
2023-01-09T20:59:22.571Z,98638.59
2023-01-09T21:01:50.447Z,98633.63
2023-01-09T21:04:18.384Z,98636.38
2023-01-09T21:06:45.782Z,98637.09
2023-01-09T21:09:13.575Z,98638.09
2023-01-09T21:11:40.899Z,98638.09
2023-01-09T21:14:09.331Z,98636.81
2023-01-09T21:16:36.547Z,98641.34
2023-01-09T21:19:04.157Z,98638.38
2023-01-09T21:21:31.325Z,98634.63
2023-01-09T21:24:04.821Z,98641.41
2023-01-09T21:26:31.887Z,98643.19
2023-01-09T21:29:01.400Z,98644.91
2023-01-09T21:31:35.476Z,98643.94
2023-01-09T21:34:05.750Z,98651.72
2023-01-09T21:36:35.497Z,98648.31
2023-01-09T21:39:07.876Z,98650.09
2023-01-09T21:41:54.049Z,98655.31
2023-01-09T21:44:40.309Z,98661.84
2023-01-09T21:47:07.627Z,98668.81
2023-01-09T21:49:36.296Z,98664.38
2023-01-09T21:52:06.754Z,98657.91
2023-01-09T21:54:34.387Z,98661.16
2023-01-09T21:57:02.119Z,98663.69
2023-01-09T21:59:29.961Z,98665.16
2023-01-09T22:01:57.428Z,98675.72
2023-01-09T22:04:28.595Z,98661.72
2023-01-09T22:06:56.694Z,98669.78
2023-01-09T22:09:25.190Z,98667.31
2023-01-09T22:11:53.060Z,98665.81
2023-01-09T22:14:20.627Z,98668.81
2023-01-09T22:16:48.391Z,98666.59
2023-01-09T22:19:18.153Z,98671.06
2023-01-09T22:21:45.761Z,98672.06
2023-01-09T22:24:15.194Z,98669.78
2023-01-09T22:26:42.672Z,98670.22
2023-01-09T22:29:10.083Z,98659.72
2023-01-09T22:31:40.261Z,98658.69
2023-01-09T22:34:07.771Z,98671.72
2023-01-09T22:36:38.125Z,98662.19
2023-01-09T22:39:06.086Z,98674.19
2023-01-09T22:41:33.878Z,98671.38
2023-01-09T22:44:01.309Z,98675.81
2023-01-09T22:46:28.360Z,98670.31
2023-01-09T22:48:55.729Z,98678.28
2023-01-09T22:51:25.488Z,98675.00
2023-01-09T22:53:53.073Z,98674.72
2023-01-09T22:56:22.072Z,98677.19
2023-01-09T22:58:54.852Z,98669.16
2023-01-09T23:01:25.400Z,98669.38
2023-01-09T23:03:53.202Z,98682.38
2023-01-09T23:06:25.367Z,98669.88
2023-01-09T23:08:53.274Z,98671.63
2023-01-09T23:11:45.573Z,98678.06
2023-01-09T23:14:13.179Z,98676.81
2023-01-09T23:16:40.643Z,98676.38
2023-01-09T23:19:10.003Z,98679.13
2023-01-09T23:21:37.461Z,98691.59
2023-01-09T23:24:07.034Z,98687.38
2023-01-09T23:26:35.191Z,98688.84
2023-01-09T23:29:02.882Z,98688.66
2023-01-09T23:31:30.034Z,98687.91
2023-01-09T23:33:57.594Z,98687.09
2023-01-09T23:36:24.812Z,98681.63
2023-01-09T23:38:52.140Z,98688.34
2023-01-09T23:41:19.471Z,98684.56
2023-01-09T23:43:49.279Z,98695.03
2023-01-09T23:46:16.391Z,98692.28
2023-01-09T23:48:43.878Z,98697.78
2023-01-09T23:51:11.962Z,98689.53
2023-01-09T23:53:39.625Z,98698.53
2023-01-09T23:56:06.749Z,98702.25
2023-01-09T23:58:36.598Z,98709.47
